Time;durP1;ratioP1;P1;durP2;ratioP2;P2;SDS_P1;SDS_P2;PMS_P1;PMS_P2;Temp;Humidity;BMP_temperature;BMP_pressure;BME280_temperature;BME280_humidity;BME280_pressure;Samples;Min_cycle;Max_cycle;Signal;HPM_P1;HPM_P2
2022/03/18 00:00:54;;;;;;;1.25;0.45;;;3.50;99.90;;;;;;5059035;28;20033;-65
2022/03/18 00:03:20;;;;;;;0.00;0.00;;;3.50;99.90;;;;;;5052624;28;20056;-65
2022/03/18 00:05:46;;;;;;;0.00;0.00;;;3.50;99.90;;;;;;5023715;28;20045;-64
2022/03/18 00:08:12;;;;;;;0.00;0.00;;;3.40;99.90;;;;;;5041367;28;20053;-65
2022/03/18 00:10:38;;;;;;;0.00;0.00;;;3.30;99.90;;;;;;5042070;28;20044;-65
2022/03/18 00:13:04;;;;;;;0.00;0.00;;;3.40;99.90;;;;;;5024529;28;20183;-65
2022/03/18 00:15:30;;;;;;;0.00;0.00;;;3.30;99.90;;;;;;5041106;28;20158;-65
2022/03/18 00:17:56;;;;;;;0.00;0.00;;;3.30;99.90;;;;;;5041798;28;20674;-66
2022/03/18 00:20:22;;;;;;;0.00;0.00;;;3.20;99.90;;;;;;5042023;28;20459;-63
2022/03/18 00:22:49;;;;;;;0.00;0.00;;;3.20;99.90;;;;;;5041604;28;20396;-65
2022/03/18 00:25:16;;;;;;;0.00;0.00;;;3.20;99.90;;;;;;5041373;28;20048;-64
2022/03/18 00:27:43;;;;;;;0.00;0.00;;;3.20;99.90;;;;;;5041679;28;20044;-64
2022/03/18 00:30:14;;;;;;;0.00;0.00;;;3.20;99.90;;;;;;5023157;28;20041;-64
2022/03/18 00:32:41;;;;;;;0.00;0.00;;;3.20;99.90;;;;;;5041029;28;20411;-64
2022/03/18 00:35:08;;;;;;;0.00;0.00;;;3.20;99.90;;;;;;5041556;28;20041;-66
2022/03/18 00:37:37;;;;;;;0.00;0.00;;;3.20;99.90;;;;;;5042081;28;20129;-66
2022/03/18 00:40:05;;;;;;;0.00;0.00;;;3.20;99.90;;;;;;5041879;28;20059;-67
2022/03/18 00:42:34;;;;;;;0.00;0.00;;;3.10;99.90;;;;;;5042356;28;20095;-66
2022/03/18 00:45:01;;;;;;;0.00;0.00;;;3.10;99.90;;;;;;5025469;28;20103;-66
2022/03/18 00:52:55;;;;;;;0.00;0.00;;;4.50;99.90;;;;;;5044665;28;20365;-64
2022/03/18 00:55:21;;;;;;;0.40;0.40;;;3.10;99.90;;;;;;5027724;28;20053;-64
2022/03/18 00:57:47;;;;;;;0.00;0.00;;;3.00;99.90;;;;;;5045613;28;20519;-64
2022/03/18 01:00:13;;;;;;;0.00;0.00;;;3.00;99.90;;;;;;5044995;28;20125;-65
2022/03/18 01:02:39;;;;;;;0.00;0.00;;;2.90;99.90;;;;;;5054856;28;20057;-64
2022/03/18 01:05:05;;;;;;;0.00;0.00;;;2.90;99.90;;;;;;5046342;28;20041;-64
2022/03/18 01:07:31;;;;;;;0.00;0.00;;;2.90;99.90;;;;;;5044751;28;20048;-64
2022/03/18 01:09:57;;;;;;;0.00;0.00;;;2.90;99.90;;;;;;5044049;28;20040;-64
2022/03/18 01:12:23;;;;;;;0.00;0.00;;;2.90;99.90;;;;;;5045493;28;20099;-64
2022/03/18 01:14:49;;;;;;;0.10;0.10;;;2.90;99.90;;;;;;5044293;28;20049;-68
2022/03/18 01:17:15;;;;;;;0.00;0.00;;;2.90;99.90;;;;;;5045130;28;20521;-64
2022/03/18 01:19:41;;;;;;;0.00;0.00;;;2.90;99.90;;;;;;5044313;28;20047;-64
2022/03/18 01:22:10;;;;;;;0.00;0.00;;;2.90;99.90;;;;;;5045123;28;20081;-65
2022/03/18 01:24:37;;;;;;;0.00;0.00;;;2.90;99.90;;;;;;5044832;28;20090;-65
2022/03/18 01:27:06;;;;;;;0.00;0.00;;;3.10;99.90;;;;;;5026524;28;20119;-65
2022/03/18 01:29:33;;;;;;;0.00;0.00;;;3.10;99.90;;;;;;5044422;28;20045;-64
2022/03/18 01:31:59;;;;;;;0.00;0.00;;;3.10;99.90;;;;;;5044611;28;20385;-64
2022/03/18 01:34:25;;;;;;;0.00;0.00;;;3.10;99.90;;;;;;5027633;28;20071;-64
2022/03/18 01:36:51;;;;;;;0.00;0.00;;;3.10;99.90;;;;;;5044067;28;20057;-64
2022/03/18 01:39:17;;;;;;;0.00;0.00;;;3.10;99.90;;;;;;5044766;28;20090;-64
2022/03/18 01:41:43;;;;;;;0.00;0.00;;;3.00;99.90;;;;;;5044659;28;20045;-63
2022/03/18 01:44:10;;;;;;;0.10;0.10;;;2.90;99.90;;;;;;5044113;28;20033;-65
2022/03/18 01:46:37;;;;;;;0.00;0.00;;;3.00;99.90;;;;;;5043530;28;20064;-65
2022/03/18 01:49:06;;;;;;;0.00;0.00;;;3.00;99.90;;;;;;5026435;28;20111;-64
2022/03/18 01:51:33;;;;;;;0.00;0.00;;;3.10;99.90;;;;;;5044848;28;20506;-64
2022/03/18 01:56:43;;;;;;;0.00;0.00;;;3.20;99.90;;;;;;5042909;28;20045;-64
2022/03/18 01:59:11;;;;;;;0.00;0.00;;;3.10;99.90;;;;;;5043689;28;20535;-65
2022/03/18 02:01:37;;;;;;;0.00;0.00;;;3.10;99.90;;;;;;5045600;28;20049;-65
2022/03/18 02:04:03;;;;;;;0.00;0.00;;;3.00;99.90;;;;;;5052980;28;20135;-65
2022/03/18 02:06:28;;;;;;;0.00;0.00;;;3.00;99.90;;;;;;5044035;28;20053;-65
2022/03/18 02:08:54;;;;;;;0.00;0.00;;;2.90;99.90;;;;;;5048772;22;20635;-67
2022/03/18 02:11:21;;;;;;;0.30;0.25;;;3.00;99.90;;;;;;5005068;28;20054;-64
2022/03/18 02:13:50;;;;;;;0.00;0.00;;;2.90;99.90;;;;;;4985231;28;20057;-65
2022/03/18 02:16:15;;;;;;;0.00;0.00;;;2.90;99.90;;;;;;5002554;28;20045;-65
2022/03/18 02:18:41;;;;;;;0.00;0.00;;;3.20;99.90;;;;;;5004241;28;20400;-64
2022/03/18 02:21:08;;;;;;;0.00;0.00;;;3.20;99.90;;;;;;5004811;28;20507;-65
2022/03/18 02:23:34;;;;;;;0.00;0.00;;;2.70;99.90;;;;;;5004334;28;20125;-65
2022/03/18 02:26:00;;;;;;;0.00;0.00;;;2.60;99.90;;;;;;5004746;28;20172;-65
2022/03/18 02:28:26;;;;;;;0.00;0.00;;;2.70;99.90;;;;;;5003414;28;20042;-64
2022/03/18 02:30:51;;;;;;;0.00;0.00;;;2.80;99.90;;;;;;5003513;28;20049;-65
2022/03/18 02:33:17;;;;;;;0.00;0.00;;;2.70;99.90;;;;;;5003896;28;20049;-65
2022/03/18 02:35:43;;;;;;;0.00;0.00;;;2.80;99.90;;;;;;5002970;28;20069;-65
2022/03/18 02:38:09;;;;;;;0.00;0.00;;;2.80;99.90;;;;;;5002944;28;20045;-64
2022/03/18 02:40:34;;;;;;;0.00;0.00;;;3.90;99.90;;;;;;5003295;28;20046;-62
2022/03/18 02:43:00;;;;;;;0.00;0.00;;;2.70;99.90;;;;;;5002688;28;20045;-64
2022/03/18 02:45:26;;;;;;;0.00;0.00;;;2.70;99.90;;;;;;5003826;28;20081;-64
2022/03/18 02:47:51;;;;;;;0.00;0.00;;;2.60;99.90;;;;;;5003517;28;20038;-64
2022/03/18 02:50:17;;;;;;;0.00;0.00;;;2.70;99.90;;;;;;5003836;28;20091;-66
2022/03/18 02:52:44;;;;;;;0.00;0.00;;;2.70;99.90;;;;;;5003824;28;20076;-63
2022/03/18 02:55:10;;;;;;;0.00;0.00;;;2.80;99.90;;;;;;5003992;28;20100;-67
2022/03/18 02:57:37;;;;;;;0.00;0.00;;;2.80;99.90;;;;;;5004121;28;20046;-67
2022/03/18 03:00:05;;;;;;;0.00;0.00;;;2.80;99.90;;;;;;5003352;28;20054;-67
2022/03/18 03:02:31;;;;;;;0.00;0.00;;;2.80;99.90;;;;;;4998014;28;20050;-66
2022/03/18 03:07:59;;;;;;;0.00;0.00;;;2.60;99.90;;;;;;4983584;28;20046;-64
2022/03/18 03:10:33;;;;;;;0.00;0.00;;;2.60;99.90;;;;;;4983825;28;20054;-66
2022/03/18 03:13:03;;;;;;;0.00;0.00;;;2.60;99.90;;;;;;4984089;28;20069;-66
2022/03/18 03:15:29;;;;;;;0.00;0.00;;;2.50;99.90;;;;;;4983445;28;20046;-66
2022/03/18 03:17:55;;;;;;;0.00;0.00;;;2.60;99.90;;;;;;4983535;28;20058;-66
2022/03/18 03:20:21;;;;;;;0.00;0.00;;;2.30;99.90;;;;;;4983686;28;20045;-66
2022/03/18 03:22:47;;;;;;;0.00;0.00;;;2.50;99.90;;;;;;4983472;28;20478;-66
2022/03/18 03:25:13;;;;;;;0.00;0.00;;;2.50;99.90;;;;;;4983950;28;20056;-66
2022/03/18 03:27:38;;;;;;;0.10;0.10;;;2.60;99.90;;;;;;4998274;28;20030;-64
2022/03/18 03:30:07;;;;;;;0.00;0.00;;;2.60;99.90;;;;;;4983374;28;20081;-67
2022/03/18 03:32:32;;;;;;;0.00;0.00;;;2.70;99.90;;;;;;4984003;28;20052;-66
2022/03/18 03:34:59;;;;;;;0.00;0.00;;;2.50;99.90;;;;;;4983323;28;20046;-66
2022/03/18 03:37:26;;;;;;;0.00;0.00;;;2.60;99.90;;;;;;4983555;28;20046;-66
2022/03/18 03:39:52;;;;;;;0.03;0.03;;;2.70;99.90;;;;;;4983420;28;20078;-66
2022/03/18 03:42:18;;;;;;;0.00;0.00;;;2.70;99.90;;;;;;4983828;28;20046;-66
2022/03/18 03:44:45;;;;;;;0.00;0.00;;;2.70;99.90;;;;;;4981950;28;20403;-66
2022/03/18 03:47:11;;;;;;;0.03;0.03;;;2.80;99.90;;;;;;4983382;28;20062;-66
2022/03/18 03:49:37;;;;;;;0.00;0.00;;;2.80;99.90;;;;;;4983029;28;20053;-67
2022/03/18 03:52:03;;;;;;;0.00;0.00;;;2.80;99.90;;;;;;4983557;28;20069;-66
2022/03/18 03:54:29;;;;;;;0.00;0.00;;;2.80;99.90;;;;;;4983289;28;20081;-66
2022/03/18 03:56:55;;;;;;;0.00;0.00;;;2.80;99.90;;;;;;4981865;28;20052;-66
2022/03/18 03:59:21;;;;;;;0.00;0.00;;;2.80;99.90;;;;;;4982404;28;20050;-64
2022/03/18 04:01:47;;;;;;;0.10;0.10;;;2.80;99.90;;;;;;4985610;28;20448;-66
2022/03/18 04:04:13;;;;;;;0.00;0.00;;;2.80;99.90;;;;;;4990759;28;20148;-65
2022/03/18 04:06:38;;;;;;;0.03;0.03;;;2.80;99.90;;;;;;4982858;28;20081;-60
2022/03/18 04:09:04;;;;;;;0.00;0.00;;;2.80;99.90;;;;;;4983578;28;20167;-65
2022/03/18 04:11:30;;;;;;;0.00;0.00;;;3.00;99.90;;;;;;4982914;28;20038;-66
2022/03/18 04:13:56;;;;;;;0.00;0.00;;;2.90;99.90;;;;;;4981927;28;20412;-64
2022/03/18 04:16:22;;;;;;;0.00;0.00;;;2.90;99.90;;;;;;4965939;28;20053;-64
2022/03/18 04:18:48;;;;;;;0.00;0.00;;;2.90;99.90;;;;;;4981969;28;20121;-64
2022/03/18 04:21:14;;;;;;;0.00;0.00;;;2.90;99.90;;;;;;4982870;28;20050;-65
2022/03/18 04:23:41;;;;;;;0.30;0.30;;;3.00;99.90;;;;;;4982509;28;20049;-66
2022/03/18 04:26:07;;;;;;;0.00;0.00;;;3.00;99.90;;;;;;4982857;28;20042;-64
2022/03/18 04:28:32;;;;;;;0.00;0.00;;;2.90;99.90;;;;;;4982808;28;20053;-65
2022/03/18 04:30:58;;;;;;;0.00;0.00;;;2.90;99.90;;;;;;4981605;28;20416;-64
2022/03/18 04:33:23;;;;;;;0.00;0.00;;;2.90;99.90;;;;;;4983149;28;20042;-66
2022/03/18 04:35:49;;;;;;;0.00;0.00;;;2.80;99.90;;;;;;4982409;28;20047;-64
2022/03/18 04:38:15;;;;;;;0.00;0.00;;;2.80;99.90;;;;;;4982507;28;20527;-64
2022/03/18 04:40:40;;;;;;;0.00;0.00;;;3.10;99.90;;;;;;4982465;28;20049;-64
2022/03/18 04:43:06;;;;;;;0.00;0.00;;;2.80;99.90;;;;;;4981287;28;20077;-65
2022/03/18 04:45:31;;;;;;;0.00;0.00;;;2.80;99.90;;;;;;4982199;28;20050;-65
2022/03/18 04:47:57;;;;;;;0.00;0.00;;;2.70;99.90;;;;;;4982377;28;20046;-68
2022/03/18 04:50:23;;;;;;;0.00;0.00;;;2.60;99.90;;;;;;4982478;28;20193;-64
2022/03/18 04:52:49;;;;;;;0.00;0.00;;;2.60;99.90;;;;;;4982533;28;20038;-64
2022/03/18 04:55:14;;;;;;;0.00;0.00;;;2.60;99.90;;;;;;4982182;28;20719;-67
2022/03/18 04:57:40;;;;;;;0.00;0.00;;;2.60;99.90;;;;;;4982179;28;20046;-67
2022/03/18 05:00:07;;;;;;;0.00;0.00;;;2.60;99.90;;;;;;4980879;28;20125;-67
2022/03/18 05:02:35;;;;;;;0.00;0.00;;;2.60;99.90;;;;;;4992816;28;20427;-67
2022/03/18 05:05:00;;;;;;;0.00;0.00;;;2.50;99.90;;;;;;4983555;28;20493;-67
2022/03/18 05:07:26;;;;;;;0.00;0.00;;;2.60;99.90;;;;;;4982532;28;20046;-64
2022/03/18 05:09:52;;;;;;;0.00;0.00;;;2.50;99.90;;;;;;4982328;28;20129;-65
2022/03/18 05:12:18;;;;;;;0.00;0.00;;;2.50;99.90;;;;;;4982076;28;20058;-65
2022/03/18 05:14:44;;;;;;;0.00;0.00;;;2.50;99.90;;;;;;4981484;28;20133;-64
2022/03/18 05:17:10;;;;;;;0.00;0.00;;;2.50;99.90;;;;;;4982971;28;20500;-66
2022/03/18 05:19:37;;;;;;;0.00;0.00;;;2.90;99.90;;;;;;4982324;28;20050;-65
2022/03/18 05:22:05;;;;;;;0.00;0.00;;;2.40;99.90;;;;;;4981873;28;20749;-64
2022/03/18 05:24:30;;;;;;;0.00;0.00;;;2.40;99.90;;;;;;4982660;28;20150;-65
2022/03/18 05:26:58;;;;;;;0.00;0.00;;;2.40;99.90;;;;;;4982276;28;20114;-65
2022/03/18 05:29:25;;;;;;;0.00;0.00;;;2.40;99.90;;;;;;4981220;28;20089;-66
2022/03/18 05:31:51;;;;;;;0.00;0.00;;;2.30;99.90;;;;;;4985169;28;20050;-64
2022/03/18 05:34:17;;;;;;;0.00;0.00;;;2.30;99.90;;;;;;4985920;28;20108;-65
2022/03/18 05:36:43;;;;;;;0.00;0.00;;;2.30;99.90;;;;;;4985469;28;20038;-64
2022/03/18 05:39:09;;;;;;;0.00;0.00;;;2.30;99.90;;;;;;4985243;28;20532;-65
2022/03/18 05:41:35;;;;;;;0.00;0.00;;;2.30;99.90;;;;;;4985117;28;20062;-65
2022/03/18 05:44:01;;;;;;;0.00;0.00;;;2.20;99.90;;;;;;4985101;28;20501;-66
2022/03/18 05:46:27;;;;;;;0.00;0.00;;;2.20;99.90;;;;;;4985102;28;20049;-65
2022/03/18 05:48:52;;;;;;;0.00;0.00;;;2.20;99.90;;;;;;4983933;28;20056;-66
2022/03/18 05:51:18;;;;;;;0.00;0.00;;;2.10;99.90;;;;;;4985700;28;20120;-66
2022/03/18 05:53:44;;;;;;;0.00;0.00;;;2.50;99.90;;;;;;4983949;28;20054;-64
2022/03/18 05:58:55;;;;;;;0.00;0.00;;;2.10;99.90;;;;;;4984331;28;20318;-64
2022/03/18 06:01:21;;;;;;;0.00;0.00;;;2.10;99.90;;;;;;4987543;28;20088;-65
2022/03/18 06:03:48;;;;;;;0.00;0.00;;;2.10;99.90;;;;;;4993460;28;20050;-65
2022/03/18 06:06:14;;;;;;;0.00;0.00;;;2.20;99.90;;;;;;4985263;28;20088;-66
2022/03/18 06:14:08;;;;;;;0.00;0.00;;;2.30;99.90;;;;;;4984178;28;20057;-65
2022/03/18 06:16:36;;;;;;;0.00;0.00;;;2.10;99.90;;;;;;4985468;28;20611;-61
2022/03/18 06:19:01;;;;;;;0.00;0.00;;;2.20;99.90;;;;;;4999990;28;20108;-66
2022/03/18 06:21:27;;;;;;;0.00;0.00;;;2.20;99.90;;;;;;4985150;28;20046;-66
2022/03/18 06:23:53;;;;;;;0.00;0.00;;;2.30;99.90;;;;;;4984625;28;20061;-65
2022/03/18 06:26:19;;;;;;;0.00;0.00;;;2.30;99.90;;;;;;4984824;28;20054;-65
2022/03/18 06:28:45;;;;;;;0.00;0.00;;;2.30;99.90;;;;;;4983717;28;20038;-66
2022/03/18 06:31:10;;;;;;;0.00;0.00;;;2.40;99.90;;;;;;4984977;28;20054;-65
2022/03/18 06:33:44;;;;;;;0.00;0.00;;;2.40;99.90;;;;;;4983940;28;20046;-65
2022/03/18 06:36:13;;;;;;;0.00;0.00;;;2.50;99.90;;;;;;4984917;28;20162;-66
2022/03/18 06:38:38;;;;;;;0.00;0.00;;;2.60;99.90;;;;;;4984389;28;20049;-63
2022/03/18 06:41:04;;;;;;;0.00;0.00;;;2.60;99.90;;;;;;4984524;28;20047;-65
2022/03/18 06:43:30;;;;;;;0.00;0.00;;;2.60;99.90;;;;;;4983815;28;20125;-64
2022/03/18 06:45:56;;;;;;;0.00;0.00;;;2.60;99.90;;;;;;4983901;28;20137;-64
2022/03/18 06:48:22;;;;;;;0.00;0.00;;;2.70;99.90;;;;;;4983899;28;20048;-65
2022/03/18 06:50:48;;;;;;;0.00;0.00;;;2.80;99.90;;;;;;4984119;28;20050;-64
2022/03/18 06:53:14;;;;;;;0.00;0.00;;;2.90;99.90;;;;;;4984592;28;20129;-65
2022/03/18 06:55:39;;;;;;;0.00;0.00;;;2.90;99.90;;;;;;4984041;28;20126;-64
2022/03/18 06:58:05;;;;;;;0.00;0.00;;;3.20;99.90;;;;;;4983747;28;20076;-65
2022/03/18 07:00:30;;;;;;;0.00;0.00;;;3.10;99.90;;;;;;4983953;28;20093;-65
2022/03/18 07:02:56;;;;;;;0.00;0.00;;;3.20;99.90;;;;;;4983747;28;20046;-67
2022/03/18 07:05:22;;;;;;;0.00;0.00;;;3.30;99.90;;;;;;5003406;28;20128;-65
2022/03/18 07:07:50;;;;;;;0.00;0.00;;;3.40;99.90;;;;;;5003336;28;20042;-64
2022/03/18 07:10:16;;;;;;;0.00;0.00;;;3.50;99.90;;;;;;5003349;28;20151;-64
2022/03/18 07:12:42;;;;;;;0.00;0.00;;;3.60;99.90;;;;;;5003714;28;20108;-65
2022/03/18 07:15:08;;;;;;;0.00;0.00;;;3.70;99.90;;;;;;5002406;28;20125;-65
2022/03/18 07:20:18;;;;;;;0.00;0.00;;;3.90;99.90;;;;;;5003352;28;20121;-65
2022/03/18 07:22:44;;;;;;;0.00;0.00;;;4.00;99.90;;;;;;5002978;28;20120;-66
2022/03/18 07:25:10;;;;;;;0.00;0.00;;;4.10;99.90;;;;;;5003410;28;20038;-66
2022/03/18 07:27:36;;;;;;;0.10;0.10;;;4.10;99.90;;;;;;5003139;28;20037;-66
2022/03/18 07:30:06;;;;;;;0.00;0.00;;;4.20;99.90;;;;;;5002171;28;20049;-66
2022/03/18 07:32:32;;;;;;;0.00;0.00;;;4.30;99.90;;;;;;5003636;28;20112;-65
2022/03/18 07:34:57;;;;;;;0.00;0.00;;;4.40;99.90;;;;;;5002965;28;20053;-66
2022/03/18 07:37:24;;;;;;;0.00;0.00;;;4.50;99.90;;;;;;5002960;28;20042;-65
2022/03/18 07:39:49;;;;;;;0.00;0.00;;;4.80;99.90;;;;;;5002700;28;20068;-63
2022/03/18 07:42:15;;;;;;;0.00;0.00;;;4.70;99.90;;;;;;5001777;28;20409;-66
2022/03/18 07:44:40;;;;;;;0.00;0.00;;;4.80;99.90;;;;;;5001795;28;20049;-66
2022/03/18 07:47:07;;;;;;;10.63;1.10;;;5.10;99.90;;;;;;5002368;28;20436;-66
2022/03/18 07:49:32;;;;;;;0.00;0.00;;;5.10;99.90;;;;;;5003116;28;20172;-65
2022/03/18 07:51:58;;;;;;;0.00;0.00;;;5.20;99.90;;;;;;5002485;28;20128;-64
2022/03/18 07:54:23;;;;;;;0.00;0.00;;;5.20;99.90;;;;;;5002207;28;20053;-65
2022/03/18 07:56:51;;;;;;;0.10;0.10;;;5.30;99.90;;;;;;5001891;28;20080;-64
2022/03/18 07:59:16;;;;;;;0.00;0.00;;;5.40;99.90;;;;;;5002128;28;20447;-66
2022/03/18 08:01:42;;;;;;;0.00;0.00;;;5.70;99.90;;;;;;4996344;28;20042;-64
2022/03/18 08:04:12;;;;;;;0.00;0.00;;;5.70;99.90;;;;;;4989370;28;20571;-66
2022/03/18 08:06:38;;;;;;;0.00;0.00;;;5.80;99.90;;;;;;4983096;28;20177;-65
2022/03/18 08:09:04;;;;;;;0.00;0.00;;;6.00;99.90;;;;;;4982925;28;20587;-65
2022/03/18 08:11:30;;;;;;;0.00;0.00;;;6.10;99.90;;;;;;4983199;28;20050;-65
2022/03/18 08:13:55;;;;;;;0.00;0.00;;;6.20;99.90;;;;;;4981447;28;20042;-65
2022/03/18 08:16:22;;;;;;;0.00;0.00;;;6.40;99.90;;;;;;4983064;28;20196;-64
2022/03/18 08:18:48;;;;;;;0.00;0.00;;;6.40;99.90;;;;;;4982513;28;20516;-66
2022/03/18 08:21:16;;;;;;;0.00;0.00;;;6.60;99.90;;;;;;4982966;28;20053;-66
2022/03/18 08:23:42;;;;;;;0.00;0.00;;;6.70;99.90;;;;;;4982810;28;20045;-64
2022/03/18 08:26:08;;;;;;;0.00;0.00;;;6.80;99.90;;;;;;4982712;28;20038;-66
2022/03/18 08:28:33;;;;;;;0.00;0.00;;;6.90;99.90;;;;;;4982298;28;20142;-64
2022/03/18 08:30:59;;;;;;;0.00;0.00;;;7.20;99.90;;;;;;4982106;28;20409;-68
2022/03/18 08:33:26;;;;;;;0.00;0.00;;;7.20;99.90;;;;;;4982986;28;20042;-64
2022/03/18 08:35:51;;;;;;;0.00;0.00;;;7.40;99.90;;;;;;4981271;28;20129;-64
2022/03/18 08:38:17;;;;;;;1.00;0.93;;;7.50;99.90;;;;;;4982190;28;20121;-65
2022/03/18 08:40:43;;;;;;;0.70;0.45;;;7.60;99.90;;;;;;4982084;28;20042;-64
2022/03/18 08:43:09;;;;;;;0.00;0.00;;;7.70;99.90;;;;;;4982759;28;20090;-64
2022/03/18 08:45:35;;;;;;;0.00;0.00;;;7.80;99.90;;;;;;4982533;28;20043;-65
2022/03/18 08:48:02;;;;;;;0.00;0.00;;;7.90;99.90;;;;;;4982105;28;20200;-65
2022/03/18 08:50:28;;;;;;;0.00;0.00;;;9.00;99.90;;;;;;4982652;28;20050;-66
2022/03/18 08:52:56;;;;;;;0.00;0.00;;;8.10;99.90;;;;;;4982525;28;20065;-66
2022/03/18 08:55:22;;;;;;;0.00;0.00;;;8.20;99.90;;;;;;4982215;28;20082;-66
2022/03/18 08:57:48;;;;;;;0.00;0.00;;;8.20;99.90;;;;;;4981898;28;20039;-66
2022/03/18 09:00:15;;;;;;;0.00;0.00;;;8.30;99.90;;;;;;4982183;28;20042;-64
2022/03/18 09:02:43;;;;;;;0.00;0.00;;;8.40;99.90;;;;;;4993374;28;20042;-64
2022/03/18 09:05:09;;;;;;;0.00;0.00;;;8.60;99.90;;;;;;4982796;28;20484;-64
2022/03/18 09:07:36;;;;;;;0.00;0.00;;;8.70;99.90;;;;;;4986137;28;20050;-64
2022/03/18 09:10:04;;;;;;;0.00;0.00;;;8.90;99.90;;;;;;4986175;28;20096;-64
2022/03/18 09:12:30;;;;;;;0.00;0.00;;;9.00;99.90;;;;;;5000723;28;20055;-63
2022/03/18 09:14:56;;;;;;;0.00;0.00;;;9.20;99.90;;;;;;4985142;28;20057;-63
2022/03/18 09:17:22;;;;;;;0.00;0.00;;;9.70;99.90;;;;;;4986108;28;20054;-65
2022/03/18 09:19:48;;;;;;;0.00;0.00;;;11.10;99.90;;;;;;4986338;28;20635;-64
2022/03/18 09:22:16;;;;;;;0.00;0.00;;;11.30;99.90;;;;;;4985998;28;20038;-63
2022/03/18 09:24:43;;;;;;;0.00;0.00;;;12.20;99.90;;;;;;4985569;28;20409;-64
2022/03/18 09:27:10;;;;;;;0.00;0.00;;;13.40;99.90;;;;;;4985121;28;20481;-65
2022/03/18 09:29:36;;;;;;;0.00;0.00;;;13.40;99.90;;;;;;4984749;28;20042;-63
2022/03/18 09:32:05;;;;;;;0.00;0.00;;;14.00;99.90;;;;;;5000947;28;20057;-65
2022/03/18 09:34:31;;;;;;;0.00;0.00;;;14.50;99.90;;;;;;4986303;28;20049;-64
2022/03/18 09:36:58;;;;;;;0.00;0.00;;;14.80;99.90;;;;;;4985460;28;20125;-66
2022/03/18 09:39:26;;;;;;;0.00;0.00;;;15.20;99.90;;;;;;4986026;28;20050;-64
2022/03/18 09:41:53;;;;;;;0.00;0.00;;;15.30;99.90;;;;;;4985496;28;20049;-62
2022/03/18 09:44:19;;;;;;;0.00;0.00;;;15.60;99.90;;;;;;4985110;28;20054;-56
2022/03/18 09:46:47;;;;;;;0.08;0.08;;;16.00;99.90;;;;;;4984825;28;20114;-56
2022/03/18 09:49:15;;;;;;;0.00;0.00;;;16.50;99.90;;;;;;4985764;28;20444;-65
2022/03/18 09:51:46;;;;;;;0.00;0.00;;;16.50;99.90;;;;;;4985417;28;20046;-64
2022/03/18 09:54:13;;;;;;;0.00;0.00;;;16.40;99.90;;;;;;4985439;28;20074;-64
2022/03/18 09:56:43;;;;;;;0.00;0.00;;;16.40;99.90;;;;;;4985155;28;20130;-63
2022/03/18 09:59:09;;;;;;;0.00;0.00;;;16.30;99.90;;;;;;4984708;28;20108;-64
2022/03/18 10:01:35;;;;;;;0.00;0.00;;;16.60;99.90;;;;;;4987182;28;20042;-64
2022/03/18 10:04:10;;;;;;;0.00;0.00;;;16.60;99.90;;;;;;4993982;28;20097;-64
2022/03/18 10:06:36;;;;;;;;;;;16.70;99.90;;;;;;5000372;28;20112;-64
2022/03/18 10:09:04;;;;;;;0.00;0.00;;;16.90;99.90;;;;;;4984492;28;20331;-64
2022/03/18 10:11:34;;;;;;;0.00;0.00;;;16.60;99.90;;;;;;4985579;28;20433;-66
2022/03/18 10:14:04;;;;;;;0.00;0.00;;;16.50;99.90;;;;;;4984597;28;20057;-66
2022/03/18 10:16:54;;;;;;;0.00;0.00;;;16.60;99.90;;;;;;4984364;28;20038;-64
2022/03/18 10:19:24;;;;;;;0.00;0.00;;;16.60;99.90;;;;;;4985568;28;20074;-64
2022/03/18 10:21:53;;;;;;;0.00;0.00;;;16.60;99.90;;;;;;4984406;28;20064;-65
2022/03/18 10:24:23;;;;;;;0.00;0.00;;;16.70;99.90;;;;;;4985037;28;20050;-64
2022/03/18 10:26:52;;;;;;;0.00;0.00;;;16.40;99.90;;;;;;4984693;28;20413;-64
2022/03/18 10:29:18;;;;;;;0.00;0.00;;;16.50;99.90;;;;;;4983655;28;20043;-64
2022/03/18 10:31:59;;;;;;;0.00;0.00;;;16.70;99.90;;;;;;4984457;28;20050;-64
2022/03/18 10:37:25;;;;;;;0.00;0.00;;;16.50;99.90;;;;;;4984861;28;20094;-65
2022/03/18 10:39:59;;;;;;;0.00;0.00;;;16.60;99.90;;;;;;4983643;28;20072;-64
2022/03/18 10:42:24;;;;;;;0.00;0.00;;;16.80;99.90;;;;;;4984658;28;20133;-64
2022/03/18 10:44:59;;;;;;;0.00;0.00;;;17.00;99.90;;;;;;4983351;28;20074;-64
2022/03/18 10:47:27;;;;;;;0.00;0.00;;;16.90;99.90;;;;;;4983952;28;20599;-64
2022/03/18 10:50:12;;;;;;;0.00;0.00;;;16.70;99.90;;;;;;4983851;28;20054;-64
2022/03/18 10:52:38;;;;;;;0.00;0.00;;;16.90;99.90;;;;;;4984016;28;20042;-64
2022/03/18 10:55:19;;;;;;;0.00;0.00;;;17.00;99.90;;;;;;4984612;28;20666;-64
2022/03/18 10:58:05;;;;;;;0.00;0.00;;;17.30;99.90;;;;;;4982723;28;20056;-64
2022/03/18 11:00:35;;;;;;;0.00;0.00;;;17.10;99.90;;;;;;4984526;28;20412;-64
2022/03/18 11:03:02;;;;;;;0.00;0.00;;;17.20;99.90;;;;;;4995360;28;20046;-64
2022/03/18 11:05:32;;;;;;;0.00;0.00;;;17.30;99.90;;;;;;4982293;28;20050;-64
2022/03/18 11:08:03;;;;;;;0.00;0.00;;;17.00;99.90;;;;;;4983721;28;20046;-64
2022/03/18 11:13:15;;;;;;;0.00;0.00;;;17.20;99.90;;;;;;4983225;28;20046;-64
2022/03/18 11:15:45;;;;;;;0.00;0.00;;;17.60;99.90;;;;;;4983748;28;20054;-64
2022/03/18 11:18:12;;;;;;;0.00;0.00;;;17.90;99.90;;;;;;4983953;28;20042;-64
2022/03/18 11:20:45;;;;;;;0.00;0.00;;;17.90;99.90;;;;;;4983622;28;20401;-64
2022/03/18 11:23:23;;;;;;;0.00;0.00;;;18.00;99.90;;;;;;4984027;28;20050;-64
2022/03/18 11:25:54;;;;;;;0.10;0.03;;;17.80;99.90;;;;;;4982982;28;20112;-64
2022/03/18 11:28:21;;;;;;;0.00;0.00;;;17.80;99.90;;;;;;4981410;28;20062;-64
2022/03/18 11:30:48;;;;;;;0.00;0.00;;;17.90;99.90;;;;;;4983586;28;20050;-64
2022/03/18 11:33:14;;;;;;;0.00;0.00;;;17.70;99.90;;;;;;4983492;28;20039;-64
2022/03/18 11:35:51;;;;;;;0.00;0.00;;;17.90;99.90;;;;;;4983164;28;20097;-64
2022/03/18 11:38:25;;;;;;;0.00;0.00;;;18.10;99.90;;;;;;4983494;28;20042;-64
2022/03/18 11:41:05;;;;;;;0.00;0.00;;;18.30;99.90;;;;;;4982702;28;20085;-64
2022/03/18 11:43:36;;;;;;;0.00;0.00;;;18.40;99.90;;;;;;4983627;28;20077;-64
2022/03/18 11:46:14;;;;;;;0.00;0.00;;;18.30;99.90;;;;;;4983500;28;20527;-64
2022/03/18 11:48:46;;;;;;;0.00;0.00;;;18.60;99.90;;;;;;4983200;28;20042;-64
2022/03/18 11:51:40;;;;;;;0.00;0.00;;;18.50;99.90;;;;;;4998124;28;20053;-64
2022/03/18 11:54:12;;;;;;;0.00;0.00;;;18.50;99.90;;;;;;4983811;28;20395;-65
2022/03/18 11:56:54;;;;;;;0.00;0.00;;;18.70;99.90;;;;;;4982914;28;20050;-65
2022/03/18 11:59:25;;;;;;;0.10;0.10;;;18.80;99.90;;;;;;4983225;28;20046;-64
2022/03/18 12:01:54;;;;;;;0.00;0.00;;;18.70;99.90;;;;;;4987130;28;20050;-64
2022/03/18 12:04:48;;;;;;;0.00;0.00;;;18.50;99.90;;;;;;4989945;28;20050;-65
2022/03/18 12:07:25;;;;;;;0.00;0.00;;;18.60;99.90;;;;;;4982895;28;20084;-64
2022/03/18 12:09:55;;;;;;;0.00;0.00;;;18.70;99.90;;;;;;4982473;28;20425;-64
2022/03/18 12:12:37;;;;;;;0.00;0.00;;;18.60;99.90;;;;;;4983078;28;20054;-64
2022/03/18 12:15:15;;;;;;;0.00;0.00;;;18.60;99.90;;;;;;4983385;28;20050;-65
2022/03/18 12:17:46;;;;;;;0.00;0.00;;;18.50;99.90;;;;;;4982769;28;20054;-64
2022/03/18 12:20:23;;;;;;;0.00;0.00;;;18.40;99.90;;;;;;4981429;28;20135;-64
2022/03/18 12:22:50;;;;;;;0.00;0.00;;;18.30;99.90;;;;;;4982411;28;20046;-64
2022/03/18 12:25:16;;;;;;;0.00;0.00;;;18.20;99.90;;;;;;4983005;28;20047;-64
2022/03/18 12:27:44;;;;;;;0.00;0.00;;;18.20;99.90;;;;;;4981927;28;20579;-64
2022/03/18 12:30:30;;;;;;;0.00;0.00;;;18.20;99.90;;;;;;4983002;28;20046;-64
2022/03/18 12:32:58;;;;;;;0.00;0.00;;;18.20;99.90;;;;;;4982334;28;20046;-64
2022/03/18 12:35:26;;;;;;;0.00;0.00;;;18.30;99.90;;;;;;4983142;28;20177;-64
2022/03/18 12:38:04;;;;;;;0.00;0.00;;;18.10;99.90;;;;;;4982416;28;20038;-64
2022/03/18 12:40:30;;;;;;;0.00;0.00;;;17.90;99.90;;;;;;4983909;28;20115;-64
2022/03/18 12:42:58;;;;;;;0.00;0.00;;;17.90;99.90;;;;;;5000543;28;20132;-64
2022/03/18 12:45:24;;;;;;;0.00;0.00;;;17.70;99.90;;;;;;4987162;28;20177;-64
2022/03/18 12:47:51;;;;;;;0.00;0.00;;;17.80;99.90;;;;;;4984404;28;20046;-64
2022/03/18 12:50:17;;;;;;;0.00;0.00;;;17.80;99.90;;;;;;4986548;28;20057;-64
2022/03/18 12:52:44;;;;;;;0.00;0.00;;;17.80;99.90;;;;;;4986517;28;20042;-64
2022/03/18 12:55:12;;;;;;;0.00;0.00;;;17.70;99.90;;;;;;4986571;28;20050;-64
2022/03/18 12:57:41;;;;;;;0.00;0.00;;;17.80;99.90;;;;;;4986257;28;20042;-63
2022/03/18 13:00:12;;;;;;;0.00;0.00;;;17.70;99.90;;;;;;4986575;28;20050;-64
2022/03/18 13:02:41;;;;;;;0.00;0.00;;;17.80;99.90;;;;;;4997136;28;20034;-64
2022/03/18 13:05:07;;;;;;;0.00;0.00;;;18.00;99.90;;;;;;4986583;28;20077;-64
2022/03/18 13:07:34;;;;;;;0.00;0.00;;;17.80;99.90;;;;;;4986723;28;20038;-64
2022/03/18 13:10:00;;;;;;;0.00;0.00;;;17.60;99.90;;;;;;4985960;28;20062;-65
2022/03/18 13:12:37;;;;;;;0.00;0.00;;;17.40;99.90;;;;;;4985424;28;20133;-64
2022/03/18 13:15:17;;;;;;;0.00;0.00;;;17.30;99.90;;;;;;4986696;28;20386;-65
2022/03/18 13:17:45;;;;;;;0.00;0.00;;;17.30;99.90;;;;;;4985018;28;20121;-64
2022/03/18 13:20:26;;;;;;;0.00;0.00;;;17.20;99.90;;;;;;5000881;28;20042;-65
2022/03/18 13:22:54;;;;;;;0.00;0.00;;;17.10;99.90;;;;;;5000704;28;20548;-65
2022/03/18 13:25:21;;;;;;;0.03;0.00;;;17.30;99.90;;;;;;4986004;28;20073;-64